Santa Paula, CA

3:53 PM PDT on March 31, 2015 (GMT -0700)
Oxnard | | Change Station
CLOSE
Current Station
Airport
Location: Oxnard,
Elevation: 43 ft
Nearby Weather Stations

Elev 43 ft 34.20 °N, 119.20 °W | Updated 1 hour ago

Clear
Clear
67 °F
Feels Like 67 °F
N
9
Wind Variable Wind from SW

Today
High -- | Low -- °F
--% Chance of Precip.
Yesterday
High -- | Low -- °F
Precip. -- in
6:45 AM 7:16 PM
Waxing Gibbous, 89% visible
Pressure 29.97 in
Visibility 10.0 miles
Clouds Clear
Dew Point 51 °F
Humidity 57%
Rainfall 0.00 in
Snow Depth Not available.
UV 8 out of 12
Pollen 10.60 out of 12
Air Quality Not available.
Flu Activity Not available.
METAR KOXR 312151Z 23008KT 10SM CLR 19/11 A2997 RMK AO2 SLP149 T01940106

More Conditions Fewer Conditions

Pressure 29.97 in
Visibility 10.0 miles
Clouds Clear
Dew Point 51 °F
Humidity 57%
Rainfall 0.00 in
Snow Depth Not available.
UV 8 out of 12
Pollen 10.60 out of 12
Air Quality Not available.
Flu Activity Not available.
METAR KOXR 312151Z 23008KT 10SM CLR 19/11 A2997 RMK AO2 SLP149 T01940106

More Conditions Fewer Conditions

10-Day Weather Forecast

Almanac

Astronomy

Mar. 31, 2015 Rise Set
Actual Time
Civil Twilight
Nautical Twilight
Astronomical Twilight
Moon
Length of Visible Light
Length of Day
Tomorrow will be .
, % of the Moon is Illuminated

Today's Extremes

State Highs State Lows

Community

WunderPhotos

Upload Photos

1,809,864 photos uploaded!

WunderBlogs® & News

Nearby

Air Quality

  Air Quality AQ Index Pollutant
Not available.

Snow Depth

Station Depth Elevation

Earthquake Activity

City Distance Mag. Time & Date
Minimum magnitude displayed is 2.5.

Coastal Water Temperatures

Place Temperature

Stations

Nearby Weather Stations

Station Location Temp. Windchill Dew Point Humidity Wind Precip. Elev Updated Type